sensor_id;sensor_type;location;lat;lon;timestamp;pressure;altitude;pressure_sealevel;temperature;humidity
6136;BME280;24008;42.664;23.372;2023-02-22T00:01:09;94750.47;;;6.74;52.70
6136;BME280;24008;42.664;23.372;2023-02-22T00:03:47;94674.22;;;6.20;52.88
6136;BME280;24008;42.664;23.372;2023-02-22T00:06:16;94664.28;;;6.17;53.33
6136;BME280;24008;42.664;23.372;2023-02-22T00:08:46;94721.03;;;6.61;52.93
6136;BME280;24008;42.664;23.372;2023-02-22T00:11:14;94754.84;;;6.83;52.98
6136;BME280;24008;42.664;23.372;2023-02-22T00:13:43;94655.63;;;6.31;52.93
6136;BME280;24008;42.664;23.372;2023-02-22T00:16:13;94746.63;;;6.91;53.33
6136;BME280;24008;42.664;23.372;2023-02-22T00:18:40;94748.47;;;6.89;52.75
6136;BME280;24008;42.664;23.372;2023-02-22T00:21:09;94754.63;;;6.86;52.96
6136;BME280;24008;42.664;23.372;2023-02-22T00:23:39;94750.78;;;6.81;52.92
6136;BME280;24008;42.664;23.372;2023-02-22T00:26:11;94696.59;;;6.37;53.39
6136;BME280;24008;42.664;23.372;2023-02-22T00:28:38;94746.06;;;6.65;53.39
6136;BME280;24008;42.664;23.372;2023-02-22T00:31:08;94738.94;;;6.59;53.51
6136;BME280;24008;42.664;23.372;2023-02-22T00:33:35;94746.19;;;6.53;54.10
6136;BME280;24008;42.664;23.372;2023-02-22T00:36:04;94740.09;;;6.44;54.42
6136;BME280;24008;42.664;23.372;2023-02-22T00:38:31;94712.06;;;6.12;54.80
6136;BME280;24008;42.664;23.372;2023-02-22T00:40:57;94682.97;;;5.94;55.27
6136;BME280;24008;42.664;23.372;2023-02-22T00:43:24;94629.84;;;5.57;55.15
6136;BME280;24008;42.664;23.372;2023-02-22T00:45:51;94737.88;;;6.17;55.69
6136;BME280;24008;42.664;23.372;2023-02-22T00:48:20;94685.03;;;5.89;55.84
6136;BME280;24008;42.664;23.372;2023-02-22T00:50:47;94720.38;;;6.14;55.79
6136;BME280;24008;42.664;23.372;2023-02-22T00:53:14;94727.28;;;6.12;55.94
6136;BME280;24008;42.664;23.372;2023-02-22T00:55:41;94689.88;;;5.92;56.32
6136;BME280;24008;42.664;23.372;2023-02-22T00:58:08;94714.81;;;6.09;55.89
6136;BME280;24008;42.664;23.372;2023-02-22T01:00:36;94687.78;;;5.86;56.81
6136;BME280;24008;42.664;23.372;2023-02-22T01:03:03;94722.63;;;6.06;56.34
6136;BME280;24008;42.664;23.372;2023-02-22T01:05:32;94717.34;;;6.09;56.39
6136;BME280;24008;42.664;23.372;2023-02-22T01:08:01;94713.88;;;6.10;56.35
6136;BME280;24008;42.664;23.372;2023-02-22T01:10:32;94704.66;;;6.09;56.19
6136;BME280;24008;42.664;23.372;2023-02-22T01:12:59;94707.91;;;6.11;56.78
6136;BME280;24008;42.664;23.372;2023-02-22T01:15:29;94671.19;;;5.93;56.51
6136;BME280;24008;42.664;23.372;2023-02-22T01:17:57;94712.84;;;6.12;56.51
6136;BME280;24008;42.664;23.372;2023-02-22T01:20:24;94699.38;;;6.12;55.99
6136;BME280;24008;42.664;23.372;2023-02-22T01:22:54;94702.50;;;6.16;55.70
6136;BME280;24008;42.664;23.372;2023-02-22T01:25:23;94694.88;;;6.16;56.23
6136;BME280;24008;42.664;23.372;2023-02-22T01:27:51;94577.09;;;5.40;56.38
6136;BME280;24008;42.664;23.372;2023-02-22T01:30:20;94689.00;;;6.15;56.17
6136;BME280;24008;42.664;23.372;2023-02-22T01:32:47;94604.97;;;5.62;55.73
6136;BME280;24008;42.664;23.372;2023-02-22T01:35:18;94687.47;;;6.12;56.42
6136;BME280;24008;42.664;23.372;2023-02-22T01:37:45;94687.72;;;6.09;56.28
6136;BME280;24008;42.664;23.372;2023-02-22T01:40:17;94601.97;;;5.46;56.04
6136;BME280;24008;42.664;23.372;2023-02-22T01:42:47;94657.31;;;5.74;56.64
6136;BME280;24008;42.664;23.372;2023-02-22T01:45:43;94696.00;;;5.89;57.20
6136;BME280;24008;42.664;23.372;2023-02-22T01:48:15;94701.13;;;5.76;57.00
6136;BME280;24008;42.664;23.372;2023-02-22T01:50:47;94667.66;;;5.49;57.62
6136;BME280;24008;42.664;23.372;2023-02-22T01:53:16;94707.53;;;5.58;57.84
6136;BME280;24008;42.664;23.372;2023-02-22T01:55:45;94699.38;;;5.55;58.11
6136;BME280;24008;42.664;23.372;2023-02-22T01:58:14;94696.34;;;5.50;57.67
6136;BME280;24008;42.664;23.372;2023-02-22T02:00:42;94699.09;;;5.47;58.19
6136;BME280;24008;42.664;23.372;2023-02-22T02:03:12;94692.66;;;5.42;58.71
6136;BME280;24008;42.664;23.372;2023-02-22T02:05:42;94698.84;;;5.38;58.49
6136;BME280;24008;42.664;23.372;2023-02-22T02:08:18;94669.16;;;5.17;58.06
6136;BME280;24008;42.664;23.372;2023-02-22T02:10:48;94700.31;;;5.30;58.99
6136;BME280;24008;42.664;23.372;2023-02-22T02:13:16;94697.09;;;5.28;59.42
6136;BME280;24008;42.664;23.372;2023-02-22T02:15:42;94707.31;;;5.26;58.93
6136;BME280;24008;42.664;23.372;2023-02-22T02:18:11;94609.28;;;4.57;58.52
6136;BME280;24008;42.664;23.372;2023-02-22T02:20:46;94677.25;;;4.98;58.84
6136;BME280;24008;42.664;23.372;2023-02-22T02:23:47;94690.56;;;4.89;59.91
6136;BME280;24008;42.664;23.372;2023-02-22T02:26:43;94630.44;;;4.56;59.38
6136;BME280;24008;42.664;23.372;2023-02-22T02:29:43;94716.75;;;5.00;60.14
6136;BME280;24008;42.664;23.372;2023-02-22T02:32:29;94713.72;;;4.95;60.26
6136;BME280;24008;42.664;23.372;2023-02-22T02:35:02;94720.84;;;4.90;60.51
6136;BME280;24008;42.664;23.372;2023-02-22T02:37:34;94710.94;;;4.87;60.79
6136;BME280;24008;42.664;23.372;2023-02-22T02:40:10;94715.19;;;4.87;61.71
6136;BME280;24008;42.664;23.372;2023-02-22T02:42:41;94694.97;;;4.74;60.84
6136;BME280;24008;42.664;23.372;2023-02-22T02:45:12;94717.81;;;4.85;61.26
6136;BME280;24008;42.664;23.372;2023-02-22T02:47:45;94717.81;;;4.85;61.25
6136;BME280;24008;42.664;23.372;2023-02-22T02:50:17;94727.03;;;4.86;61.56
6136;BME280;24008;42.664;23.372;2023-02-22T02:52:46;94727.25;;;4.83;61.77
6136;BME280;24008;42.664;23.372;2023-02-22T02:55:16;94720.69;;;4.81;61.06
6136;BME280;24008;42.664;23.372;2023-02-22T02:57:44;94729.84;;;4.70;62.01
6136;BME280;24008;42.664;23.372;2023-02-22T03:00:14;94734.41;;;4.65;61.62
6136;BME280;24008;42.664;23.372;2023-02-22T03:02:57;94691.97;;;4.32;62.39
6136;BME280;24008;42.664;23.372;2023-02-22T03:05:51;94729.56;;;4.50;62.40
6136;BME280;24008;42.664;23.372;2023-02-22T03:08:27;94733.00;;;4.49;63.28
6136;BME280;24008;42.664;23.372;2023-02-22T03:11:00;94673.88;;;4.13;62.68
6136;BME280;24008;42.664;23.372;2023-02-22T03:13:35;94725.22;;;4.52;63.51
6136;BME280;24008;42.664;23.372;2023-02-22T03:16:13;94724.81;;;4.58;62.62
6136;BME280;24008;42.664;23.372;2023-02-22T03:18:49;94708.59;;;4.48;63.37
6136;BME280;24008;42.664;23.372;2023-02-22T03:21:24;94720.94;;;4.65;62.25
6136;BME280;24008;42.664;23.372;2023-02-22T03:23:59;94701.22;;;4.57;62.87
6136;BME280;24008;42.664;23.372;2023-02-22T03:26:33;94722.13;;;4.72;62.35
6136;BME280;24008;42.664;23.372;2023-02-22T03:29:02;94722.81;;;4.74;62.40
6136;BME280;24008;42.664;23.372;2023-02-22T03:31:34;94706.38;;;4.56;61.90
6136;BME280;24008;42.664;23.372;2023-02-22T03:34:07;94724.38;;;4.64;62.26
6136;BME280;24008;42.664;23.372;2023-02-22T03:36:41;94730.34;;;4.63;62.89
6136;BME280;24008;42.664;23.372;2023-02-22T03:39:12;94732.69;;;4.66;62.21
6136;BME280;24008;42.664;23.372;2023-02-22T03:41:44;94703.75;;;4.57;62.47
6136;BME280;24008;42.664;23.372;2023-02-22T03:44:20;94721.91;;;4.75;61.94
6136;BME280;24008;42.664;23.372;2023-02-22T03:46:50;94634.38;;;4.23;62.18
6136;BME280;24008;42.664;23.372;2023-02-22T03:49:28;94723.31;;;4.79;62.98
6136;BME280;24008;42.664;23.372;2023-02-22T03:51:58;94726.97;;;4.75;62.55
6136;BME280;24008;42.664;23.372;2023-02-22T03:54:25;94728.78;;;4.73;62.55
6136;BME280;24008;42.664;23.372;2023-02-22T03:56:55;94665.31;;;4.40;62.67
6136;BME280;24008;42.664;23.372;2023-02-22T03:59:24;94726.78;;;4.78;63.12
6136;BME280;24008;42.664;23.372;2023-02-22T04:01:52;94570.97;;;3.77;62.84
6136;BME280;24008;42.664;23.372;2023-02-22T04:04:20;94695.63;;;4.65;62.29
6136;BME280;24008;42.664;23.372;2023-02-22T04:06:50;94700.94;;;4.73;61.98
6136;BME280;24008;42.664;23.372;2023-02-22T04:09:17;94681.88;;;4.56;62.63
6136;BME280;24008;42.664;23.372;2023-02-22T04:11:44;94721.19;;;4.73;62.74
6136;BME280;24008;42.664;23.372;2023-02-22T04:14:12;94692.31;;;4.52;62.74
6136;BME280;24008;42.664;23.372;2023-02-22T04:16:38;94699.69;;;4.55;63.42
6136;BME280;24008;42.664;23.372;2023-02-22T04:19:05;94723.63;;;4.75;62.97
6136;BME280;24008;42.664;23.372;2023-02-22T04:21:32;94724.44;;;4.75;62.63
6136;BME280;24008;42.664;23.372;2023-02-22T04:24:00;94701.31;;;4.56;63.18
6136;BME280;24008;42.664;23.372;2023-02-22T04:26:27;94708.69;;;4.59;63.30
6136;BME280;24008;42.664;23.372;2023-02-22T04:28:53;94733.59;;;4.65;63.21
6136;BME280;24008;42.664;23.372;2023-02-22T04:31:20;94697.28;;;4.41;62.60
6136;BME280;24008;42.664;23.372;2023-02-22T04:33:47;94689.63;;;4.29;63.48
6136;BME280;24008;42.664;23.372;2023-02-22T04:36:14;94735.53;;;4.49;64.17
6136;BME280;24008;42.664;23.372;2023-02-22T04:38:40;94730.69;;;4.46;63.69
6136;BME280;24008;42.664;23.372;2023-02-22T04:41:09;94616.28;;;3.68;63.09
6136;BME280;24008;42.664;23.372;2023-02-22T04:43:36;94738.31;;;4.33;63.65
6136;BME280;24008;42.664;23.372;2023-02-22T04:46:03;94753.78;;;4.28;63.67
6136;BME280;24008;42.664;23.372;2023-02-22T04:48:30;94703.63;;;3.97;63.90
6136;BME280;24008;42.664;23.372;2023-02-22T04:50:57;94732.25;;;4.10;64.26
6136;BME280;24008;42.664;23.372;2023-02-22T04:53:24;94743.69;;;4.03;64.22
6136;BME280;24008;42.664;23.372;2023-02-22T04:55:51;94725.50;;;3.98;64.78
6136;BME280;24008;42.664;23.372;2023-02-22T04:58:19;94629.22;;;3.25;64.61
6136;BME280;24008;42.664;23.372;2023-02-22T05:00:46;94702.00;;;3.71;65.04
6136;BME280;24008;42.664;23.372;2023-02-22T05:03:13;94654.88;;;3.32;65.35
6136;BME280;24008;42.664;23.372;2023-02-22T05:05:40;94731.13;;;3.76;65.67
6136;BME280;24008;42.664;23.372;2023-02-22T05:08:06;94732.16;;;3.74;65.11
6136;BME280;24008;42.664;23.372;2023-02-22T05:10:33;94689.91;;;3.23;66.13
6136;BME280;24008;42.664;23.372;2023-02-22T05:13:00;94742.63;;;3.55;65.80
6136;BME280;24008;42.664;23.372;2023-02-22T05:15:28;94716.38;;;3.31;66.91
6136;BME280;24008;42.664;23.372;2023-02-22T05:17:55;94748.47;;;3.55;66.17
6136;BME280;24008;42.664;23.372;2023-02-22T05:20:24;94716.09;;;3.35;66.79
6136;BME280;24008;42.664;23.372;2023-02-22T05:22:52;94742.31;;;3.47;67.25
6136;BME280;24008;42.664;23.372;2023-02-22T05:25:38;94724.16;;;3.28;67.04
6136;BME280;24008;42.664;23.372;2023-02-22T05:28:10;94758.47;;;3.44;67.34
6136;BME280;24008;42.664;23.372;2023-02-22T05:30:38;94756.31;;;3.38;67.77
6136;BME280;24008;42.664;23.372;2023-02-22T05:33:06;94765.22;;;3.44;67.74
6136;BME280;24008;42.664;23.372;2023-02-22T05:35:33;94745.06;;;3.56;68.45
6136;BME280;24008;42.664;23.372;2023-02-22T05:38:01;94774.22;;;4.13;67.40
6136;BME280;24008;42.664;23.372;2023-02-22T05:40:29;94730.41;;;4.12;66.67
6136;BME280;24008;42.664;23.372;2023-02-22T05:42:57;94771.78;;;5.22;65.30
6136;BME280;24008;42.664;23.372;2023-02-22T05:45:25;94776.53;;;5.86;61.59
6136;BME280;24008;42.664;23.372;2023-02-22T05:47:54;94674.97;;;5.76;60.59
6136;BME280;24008;42.664;23.372;2023-02-22T05:50:21;94769.28;;;6.83;57.70
6136;BME280;24008;42.664;23.372;2023-02-22T05:52:49;94757.22;;;7.07;56.38
6136;BME280;24008;42.664;23.372;2023-02-22T05:55:17;94712.88;;;7.11;55.31
6136;BME280;24008;42.664;23.372;2023-02-22T05:57:44;94779.03;;;8.06;54.31
6136;BME280;24008;42.664;23.372;2023-02-22T06:00:16;94775.56;;;8.48;52.79
6136;BME280;24008;42.664;23.372;2023-02-22T06:02:43;94755.44;;;8.85;51.93
6136;BME280;24008;42.664;23.372;2023-02-22T06:05:12;94568.59;;;7.76;50.24
6136;BME280;24008;42.664;23.372;2023-02-22T06:07:39;94751.78;;;8.69;50.92
6136;BME280;24008;42.664;23.372;2023-02-22T06:10:06;94784.00;;;8.49;51.50
6136;BME280;24008;42.664;23.372;2023-02-22T06:12:33;94787.03;;;8.33;51.95
6136;BME280;24008;42.664;23.372;2023-02-22T06:14:59;94753.16;;;7.80;52.96
6136;BME280;24008;42.664;23.372;2023-02-22T06:17:26;94775.44;;;7.87;53.86
6136;BME280;24008;42.664;23.372;2023-02-22T06:20:17;94754.88;;;7.79;52.86
6136;BME280;24008;42.664;23.372;2023-02-22T06:22:45;94751.13;;;7.94;52.68
6136;BME280;24008;42.664;23.372;2023-02-22T06:25:13;94757.75;;;8.07;53.80
6136;BME280;24008;42.664;23.372;2023-02-22T06:27:40;94755.94;;;8.39;52.63
6136;BME280;24008;42.664;23.372;2023-02-22T06:30:08;94768.31;;;8.84;51.69
6136;BME280;24008;42.664;23.372;2023-02-22T06:32:36;94769.44;;;8.91;50.90
6136;BME280;24008;42.664;23.372;2023-02-22T06:35:20;94778.75;;;9.11;49.80
6136;BME280;24008;42.664;23.372;2023-02-22T06:37:46;94781.88;;;9.44;49.68
6136;BME280;24008;42.664;23.372;2023-02-22T06:40:14;94778.41;;;9.64;50.34
6136;BME280;24008;42.664;23.372;2023-02-22T06:42:41;94786.63;;;9.77;49.03
6136;BME280;24008;42.664;23.372;2023-02-22T06:45:09;94784.03;;;9.96;48.45
6136;BME280;24008;42.664;23.372;2023-02-22T06:47:39;94780.41;;;10.08;48.18
6136;BME280;24008;42.664;23.372;2023-02-22T06:50:09;94757.41;;;10.28;46.26
6136;BME280;24008;42.664;23.372;2023-02-22T06:52:44;94766.53;;;11.04;44.70
6136;BME280;24008;42.664;23.372;2023-02-22T06:55:16;94785.19;;;11.42;44.99
6136;BME280;24008;42.664;23.372;2023-02-22T06:57:42;94782.59;;;12.05;42.29
6136;BME280;24008;42.664;23.372;2023-02-22T07:00:10;94759.78;;;12.45;41.16
6136;BME280;24008;42.664;23.372;2023-02-22T07:02:37;94684.59;;;12.29;40.77
6136;BME280;24008;42.664;23.372;2023-02-22T07:05:04;94720.75;;;13.44;39.40
6136;BME280;24008;42.664;23.372;2023-02-22T07:07:31;94747.13;;;14.43;37.27
6136;BME280;24008;42.664;23.372;2023-02-22T07:09:59;94745.22;;;14.92;36.33
6136;BME280;24008;42.664;23.372;2023-02-22T07:12:26;94661.56;;;14.49;36.27
6136;BME280;24008;42.664;23.372;2023-02-22T07:14:53;94712.03;;;15.59;34.94
6136;BME280;24008;42.664;23.372;2023-02-22T07:17:20;94779.38;;;16.25;33.74
6136;BME280;24008;42.664;23.372;2023-02-22T07:19:48;94799.31;;;16.31;33.82
6136;BME280;24008;42.664;23.372;2023-02-22T07:22:14;94718.28;;;16.77;32.91
6136;BME280;24008;42.664;23.372;2023-02-22T07:24:42;94781.06;;;17.79;32.27
6136;BME280;24008;42.664;23.372;2023-02-22T07:27:10;94763.88;;;17.36;32.63
6136;BME280;24008;42.664;23.372;2023-02-22T07:29:37;94785.38;;;17.72;32.19
6136;BME280;24008;42.664;23.372;2023-02-22T07:32:04;94730.16;;;17.22;32.26
6136;BME280;24008;42.664;23.372;2023-02-22T07:34:31;94753.44;;;16.78;32.93
6136;BME280;24008;42.664;23.372;2023-02-22T07:36:58;94720.94;;;16.69;32.78
6136;BME280;24008;42.664;23.372;2023-02-22T07:39:24;94724.75;;;16.88;32.96
6136;BME280;24008;42.664;23.372;2023-02-22T07:41:52;94748.44;;;17.42;31.83
6136;BME280;24008;42.664;23.372;2023-02-22T07:44:20;94758.16;;;17.76;31.07
6136;BME280;24008;42.664;23.372;2023-02-22T07:46:47;94628.47;;;17.09;31.47
6136;BME280;24008;42.664;23.372;2023-02-22T07:49:14;94762.16;;;18.43;31.40
6136;BME280;24008;42.664;23.372;2023-02-22T07:51:41;94769.31;;;19.03;30.00
6136;BME280;24008;42.664;23.372;2023-02-22T07:54:08;94724.63;;;18.88;29.85
6136;BME280;24008;42.664;23.372;2023-02-22T07:56:35;94762.84;;;19.81;28.68
6136;BME280;24008;42.664;23.372;2023-02-22T07:59:02;94768.81;;;19.68;29.20
6136;BME280;24008;42.664;23.372;2023-02-22T08:01:30;94763.25;;;19.24;29.66
6136;BME280;24008;42.664;23.372;2023-02-22T08:03:57;94764.22;;;19.16;29.58
6136;BME280;24008;42.664;23.372;2023-02-22T08:06:24;94767.50;;;19.44;29.19
6136;BME280;24008;42.664;23.372;2023-02-22T08:08:52;94765.47;;;19.94;29.06
6136;BME280;24008;42.664;23.372;2023-02-22T08:11:19;94758.53;;;20.41;27.98
6136;BME280;24008;42.664;23.372;2023-02-22T08:13:46;94764.16;;;20.38;28.06
6136;BME280;24008;42.664;23.372;2023-02-22T08:16:13;94751.75;;;20.53;27.86
6136;BME280;24008;42.664;23.372;2023-02-22T08:18:41;94698.63;;;19.83;28.24
6136;BME280;24008;42.664;23.372;2023-02-22T08:21:08;94758.16;;;20.64;27.75
6136;BME280;24008;42.664;23.372;2023-02-22T08:23:35;94754.91;;;20.81;27.58
6136;BME280;24008;42.664;23.372;2023-02-22T08:26:04;94755.59;;;21.28;27.38
6136;BME280;24008;42.664;23.372;2023-02-22T08:28:31;94755.31;;;20.78;27.15
6136;BME280;24008;42.664;23.372;2023-02-22T08:30:58;94755.28;;;20.92;27.37
6136;BME280;24008;42.664;23.372;2023-02-22T08:33:25;94751.94;;;20.71;27.16
6136;BME280;24008;42.664;23.372;2023-02-22T08:35:53;94715.22;;;20.48;27.33
6136;BME280;24008;42.664;23.372;2023-02-22T08:38:22;94747.09;;;20.95;27.32
6136;BME280;24008;42.664;23.372;2023-02-22T08:40:49;94722.72;;;20.89;27.07
6136;BME280;24008;42.664;23.372;2023-02-22T08:43:18;94692.56;;;20.81;27.93
6136;BME280;24008;42.664;23.372;2023-02-22T08:45:45;94734.16;;;21.39;26.57
6136;BME280;24008;42.664;23.372;2023-02-22T08:48:14;94744.75;;;21.44;26.54
6136;BME280;24008;42.664;23.372;2023-02-22T08:50:41;94749.09;;;21.57;27.06
6136;BME280;24008;42.664;23.372;2023-02-22T08:53:10;94737.28;;;21.54;26.69
6136;BME280;24008;42.664;23.372;2023-02-22T08:55:39;94740.63;;;21.68;26.36
6136;BME280;24008;42.664;23.372;2023-02-22T08:58:06;94734.44;;;22.01;26.59
6136;BME280;24008;42.664;23.372;2023-02-22T09:00:35;94703.38;;;22.06;26.22
6136;BME280;24008;42.664;23.372;2023-02-22T09:03:04;94729.19;;;22.82;26.31
6136;BME280;24008;42.664;23.372;2023-02-22T09:05:31;94733.09;;;23.09;25.38
6136;BME280;24008;42.664;23.372;2023-02-22T09:07:59;94739.69;;;23.30;25.46
6136;BME280;24008;42.664;23.372;2023-02-22T09:10:29;94655.81;;;23.15;24.79
6136;BME280;24008;42.664;23.372;2023-02-22T09:12:57;94707.31;;;23.67;24.51
6136;BME280;24008;42.664;23.372;2023-02-22T09:15:25;94671.22;;;23.53;24.68
6136;BME280;24008;42.664;23.372;2023-02-22T09:17:52;94654.44;;;23.60;24.68
6136;BME280;24008;42.664;23.372;2023-02-22T09:20:21;94695.06;;;24.21;24.21
6136;BME280;24008;42.664;23.372;2023-02-22T09:22:48;94649.50;;;23.94;24.69
6136;BME280;24008;42.664;23.372;2023-02-22T09:25:16;94715.34;;;24.26;24.58
6136;BME280;24008;42.664;23.372;2023-02-22T09:27:47;94722.31;;;24.02;24.58
6136;BME280;24008;42.664;23.372;2023-02-22T09:30:21;94717.31;;;24.12;24.18
6136;BME280;24008;42.664;23.372;2023-02-22T09:32:50;94719.66;;;23.90;24.71
6136;BME280;24008;42.664;23.372;2023-02-22T09:35:17;94696.19;;;23.60;24.79
6136;BME280;24008;42.664;23.372;2023-02-22T09:37:44;94711.28;;;24.00;25.21
6136;BME280;24008;42.664;23.372;2023-02-22T09:40:16;94696.50;;;23.94;24.65
6136;BME280;24008;42.664;23.372;2023-02-22T09:42:59;94691.25;;;24.35;24.17
6136;BME280;24008;42.664;23.372;2023-02-22T09:45:31;94719.03;;;24.18;24.48
6136;BME280;24008;42.664;23.372;2023-02-22T09:48:04;94688.66;;;23.94;24.68
6136;BME280;24008;42.664;23.372;2023-02-22T09:50:34;94704.94;;;24.19;24.40
6136;BME280;24008;42.664;23.372;2023-02-22T09:53:05;94705.47;;;24.51;24.29
6136;BME280;24008;42.664;23.372;2023-02-22T09:55:36;94701.50;;;24.49;24.57
6136;BME280;24008;42.664;23.372;2023-02-22T09:58:12;94701.00;;;24.52;24.13
6136;BME280;24008;42.664;23.372;2023-02-22T10:00:41;94694.19;;;24.27;23.67
6136;BME280;24008;42.664;23.372;2023-02-22T10:03:18;94684.78;;;24.26;24.77
6136;BME280;24008;42.664;23.372;2023-02-22T10:05:51;94647.56;;;23.78;24.70
6136;BME280;24008;42.664;23.372;2023-02-22T10:08:22;94695.00;;;24.63;24.09
6136;BME280;24008;42.664;23.372;2023-02-22T10:11:01;94688.03;;;24.80;23.54
6136;BME280;24008;42.664;23.372;2023-02-22T10:13:38;94664.09;;;24.48;23.80
6136;BME280;24008;42.664;23.372;2023-02-22T10:16:16;94640.81;;;24.47;23.47
6136;BME280;24008;42.664;23.372;2023-02-22T10:19:06;94665.09;;;24.82;23.15
6136;BME280;24008;42.664;23.372;2023-02-22T10:24:37;94667.72;;;24.59;23.41
6136;BME280;24008;42.664;23.372;2023-02-22T10:27:14;94659.44;;;24.62;23.26
6136;BME280;24008;42.664;23.372;2023-02-22T10:29:46;94656.09;;;24.90;23.63
6136;BME280;24008;42.664;23.372;2023-02-22T10:32:19;94603.44;;;24.58;22.91
6136;BME280;24008;42.664;23.372;2023-02-22T10:34:49;94615.31;;;24.77;22.74
6136;BME280;24008;42.664;23.372;2023-02-22T10:37:23;94609.47;;;24.35;23.67
6136;BME280;24008;42.664;23.372;2023-02-22T10:39:56;94610.44;;;23.64;23.82
6136;BME280;24008;42.664;23.372;2023-02-22T10:42:25;94607.06;;;22.85;24.89
6136;BME280;24008;42.664;23.372;2023-02-22T10:44:54;94583.69;;;22.79;24.79
6136;BME280;24008;42.664;23.372;2023-02-22T10:47:22;94626.00;;;23.41;24.67
6136;BME280;24008;42.664;23.372;2023-02-22T10:49:52;94624.28;;;23.46;24.29
6136;BME280;24008;42.664;23.372;2023-02-22T10:52:24;94624.28;;;22.86;25.08
6136;BME280;24008;42.664;23.372;2023-02-22T10:54:54;94421.50;;;20.94;26.02
6136;BME280;24008;42.664;23.372;2023-02-22T10:57:24;94613.50;;;21.09;27.61
6136;BME280;24008;42.664;23.372;2023-02-22T10:59:55;94548.41;;;19.75;28.60
6136;BME280;24008;42.664;23.372;2023-02-22T11:02:26;94613.22;;;19.68;29.42
6136;BME280;24008;42.664;23.372;2023-02-22T11:04:56;94604.41;;;19.30;29.65
6136;BME280;24008;42.664;23.372;2023-02-22T11:07:25;94565.41;;;18.77;30.43
6136;BME280;24008;42.664;23.372;2023-02-22T11:10:11;94608.16;;;19.08;31.45
6136;BME280;24008;42.664;23.372;2023-02-22T11:12:41;94595.38;;;19.06;30.61
6136;BME280;24008;42.664;23.372;2023-02-22T11:15:27;94597.75;;;19.01;31.17
6136;BME280;24008;42.664;23.372;2023-02-22T11:17:55;94589.97;;;18.94;31.08
6136;BME280;24008;42.664;23.372;2023-02-22T11:20:27;94590.41;;;19.04;31.07
6136;BME280;24008;42.664;23.372;2023-02-22T11:23:00;94561.25;;;18.89;31.17
6136;BME280;24008;42.664;23.372;2023-02-22T11:25:31;94582.59;;;18.91;31.17
6136;BME280;24008;42.664;23.372;2023-02-22T11:28:06;94579.16;;;18.84;30.51
6136;BME280;24008;42.664;23.372;2023-02-22T11:30:35;94570.81;;;18.82;31.16
6136;BME280;24008;42.664;23.372;2023-02-22T11:33:12;94579.16;;;18.84;31.46
6136;BME280;24008;42.664;23.372;2023-02-22T11:35:50;94578.16;;;18.79;30.48
6136;BME280;24008;42.664;23.372;2023-02-22T11:38:19;94539.28;;;18.59;31.25
6136;BME280;24008;42.664;23.372;2023-02-22T11:41:04;94565.22;;;18.79;31.80
6136;BME280;24008;42.664;23.372;2023-02-22T11:43:32;94562.03;;;18.70;30.92
6136;BME280;24008;42.664;23.372;2023-02-22T11:46:03;94562.69;;;18.44;30.95
6136;BME280;24008;42.664;23.372;2023-02-22T11:48:35;94470.78;;;17.66;31.59
6136;BME280;24008;42.664;23.372;2023-02-22T11:51:15;94555.03;;;18.23;31.84
6136;BME280;24008;42.664;23.372;2023-02-22T11:54:13;94346.75;;;17.04;31.61
6136;BME280;24008;42.664;23.372;2023-02-22T11:56:51;94526.03;;;17.99;31.39
6136;BME280;24008;42.664;23.372;2023-02-22T11:59:29;94550.97;;;18.14;31.66
6136;BME280;24008;42.664;23.372;2023-02-22T12:02:13;94544.44;;;18.18;31.42
6136;BME280;24008;42.664;23.372;2023-02-22T12:05:07;94548.66;;;18.25;31.33
6136;BME280;24008;42.664;23.372;2023-02-22T12:07:54;94479.84;;;17.90;30.92
6136;BME280;24008;42.664;23.372;2023-02-22T12:10:32;94516.78;;;18.18;30.96
6136;BME280;24008;42.664;23.372;2023-02-22T12:13:17;94536.75;;;18.31;31.14
6136;BME280;24008;42.664;23.372;2023-02-22T12:15:56;94501.84;;;18.14;31.17
6136;BME280;24008;42.664;23.372;2023-02-22T12:18:33;94535.63;;;18.47;31.08
6136;BME280;24008;42.664;23.372;2023-02-22T12:21:06;94526.47;;;18.51;31.34
6136;BME280;24008;42.664;23.372;2023-02-22T12:23:40;94502.31;;;18.37;30.98
6136;BME280;24008;42.664;23.372;2023-02-22T12:26:13;94496.94;;;18.32;30.82
6136;BME280;24008;42.664;23.372;2023-02-22T12:28:46;94511.69;;;18.38;30.55
6136;BME280;24008;42.664;23.372;2023-02-22T12:31:20;94458.22;;;17.97;31.03
6136;BME280;24008;42.664;23.372;2023-02-22T12:33:54;94499.44;;;18.12;30.53
6136;BME280;24008;42.664;23.372;2023-02-22T12:36:31;94494.81;;;18.01;30.78
6136;BME280;24008;42.664;23.372;2023-02-22T12:39:03;94456.31;;;17.78;30.62
6136;BME280;24008;42.664;23.372;2023-02-22T12:41:34;94474.66;;;17.83;30.81
6136;BME280;24008;42.664;23.372;2023-02-22T12:44:06;94507.56;;;18.03;30.93
6136;BME280;24008;42.664;23.372;2023-02-22T12:46:37;94462.66;;;17.76;31.08
6136;BME280;24008;42.664;23.372;2023-02-22T12:49:13;94481.25;;;17.92;30.88
6136;BME280;24008;42.664;23.372;2023-02-22T12:51:44;94497.66;;;18.13;30.36
6136;BME280;24008;42.664;23.372;2023-02-22T12:54:19;94468.75;;;17.96;30.67
6136;BME280;24008;42.664;23.372;2023-02-22T12:56:52;94500.47;;;18.18;30.55
6136;BME280;24008;42.664;23.372;2023-02-22T12:59:23;94489.75;;;18.21;30.48
6136;BME280;24008;42.664;23.372;2023-02-22T13:01:55;94487.53;;;18.11;30.73
6136;BME280;24008;42.664;23.372;2023-02-22T13:04:25;94490.69;;;18.07;30.63
6136;BME280;24008;42.664;23.372;2023-02-22T13:07:00;94489.69;;;18.08;30.64
6136;BME280;24008;42.664;23.372;2023-02-22T13:12:40;94472.75;;;17.98;29.97
6136;BME280;24008;42.664;23.372;2023-02-22T13:15:17;94422.66;;;17.65;30.34
6136;BME280;24008;42.664;23.372;2023-02-22T13:17:53;94479.72;;;17.98;30.10
6136;BME280;24008;42.664;23.372;2023-02-22T13:20:29;94482.63;;;17.88;30.55
6136;BME280;24008;42.664;23.372;2023-02-22T13:23:02;94399.19;;;17.32;30.40
6136;BME280;24008;42.664;23.372;2023-02-22T13:25:35;94420.00;;;17.24;30.32
6136;BME280;24008;42.664;23.372;2023-02-22T13:28:16;94405.59;;;17.08;30.75
6136;BME280;24008;42.664;23.372;2023-02-22T13:30:52;94480.88;;;17.61;30.65